sensor_id;sensor_type;location;lat;lon;timestamp;pressure;altitude;pressure_sealevel;temperature;humidity
74524;BME280;63074;44.696;10.358;2024-03-06T00:02:08;99507.31;;;32.59;28.87
74524;BME280;63074;44.696;10.358;2024-03-06T00:04:35;99510.03;;;32.34;28.55
74524;BME280;63074;44.696;10.358;2024-03-06T00:07:01;99511.44;;;31.82;29.73
74524;BME280;63074;44.696;10.358;2024-03-06T00:09:28;99508.41;;;30.77;30.05
74524;BME280;63074;44.696;10.358;2024-03-06T00:11:55;99504.94;;;28.71;32.19
74524;BME280;63074;44.696;10.358;2024-03-06T00:14:21;99489.31;;;27.75;33.41
74524;BME280;63074;44.696;10.358;2024-03-06T00:16:48;99501.47;;;29.27;32.11
74524;BME280;63074;44.696;10.358;2024-03-06T00:19:17;99498.72;;;30.57;31.65
74524;BME280;63074;44.696;10.358;2024-03-06T00:21:43;99499.44;;;29.80;30.96
74524;BME280;63074;44.696;10.358;2024-03-06T00:24:11;99504.94;;;31.53;30.72
74524;BME280;63074;44.696;10.358;2024-03-06T00:26:39;99509.25;;;30.85;31.18
74524;BME280;63074;44.696;10.358;2024-03-06T00:29:05;99520.78;;;32.46;29.59
74524;BME280;63074;44.696;10.358;2024-03-06T00:31:31;99515.22;;;32.39;29.68
74524;BME280;63074;44.696;10.358;2024-03-06T00:33:58;99509.66;;;32.29;29.86
74524;BME280;63074;44.696;10.358;2024-03-06T00:36:24;99515.50;;;31.95;30.12
74524;BME280;63074;44.696;10.358;2024-03-06T00:38:50;99501.22;;;32.00;30.08
74524;BME280;63074;44.696;10.358;2024-03-06T00:41:16;99506.13;;;33.10;29.40
74524;BME280;63074;44.696;10.358;2024-03-06T00:43:42;99501.72;;;32.31;29.71
74524;BME280;63074;44.696;10.358;2024-03-06T00:46:09;99504.13;;;33.14;29.60
74524;BME280;63074;44.696;10.358;2024-03-06T00:48:35;99523.19;;;33.22;28.84
74524;BME280;63074;44.696;10.358;2024-03-06T00:51:01;99522.78;;;31.52;30.26
74524;BME280;63074;44.696;10.358;2024-03-06T00:53:28;99531.28;;;31.80;30.00
74524;BME280;63074;44.696;10.358;2024-03-06T00:55:54;99530.13;;;31.19;30.46
74524;BME280;63074;44.696;10.358;2024-03-06T00:58:20;99516.75;;;32.19;29.87
74524;BME280;63074;44.696;10.358;2024-03-06T01:00:46;99503.91;;;31.82;30.20
74524;BME280;63074;44.696;10.358;2024-03-06T01:03:13;99497.25;;;32.08;29.75
74524;BME280;63074;44.696;10.358;2024-03-06T01:05:39;99489.41;;;32.28;29.14
74524;BME280;63074;44.696;10.358;2024-03-06T01:08:05;99485.03;;;32.70;29.48
74524;BME280;63074;44.696;10.358;2024-03-06T01:10:31;99487.72;;;32.13;29.97
74524;BME280;63074;44.696;10.358;2024-03-06T01:12:57;99485.44;;;32.50;29.83
74524;BME280;63074;44.696;10.358;2024-03-06T01:15:24;99495.16;;;31.70;29.88
74524;BME280;63074;44.696;10.358;2024-03-06T01:17:51;99499.25;;;31.25;29.91
74524;BME280;63074;44.696;10.358;2024-03-06T01:20:17;99493.84;;;31.46;29.92
74524;BME280;63074;44.696;10.358;2024-03-06T01:22:44;99499.75;;;31.48;30.10
74524;BME280;63074;44.696;10.358;2024-03-06T01:25:12;99486.53;;;32.00;29.52
74524;BME280;63074;44.696;10.358;2024-03-06T01:27:38;99484.63;;;31.35;30.21
74524;BME280;63074;44.696;10.358;2024-03-06T01:30:05;99494.19;;;32.52;29.64
74524;BME280;63074;44.696;10.358;2024-03-06T01:32:31;99500.94;;;32.69;29.47
74524;BME280;63074;44.696;10.358;2024-03-06T01:34:59;99506.78;;;32.11;29.90
74524;BME280;63074;44.696;10.358;2024-03-06T01:37:25;99515.00;;;31.79;28.92
74524;BME280;63074;44.696;10.358;2024-03-06T01:39:51;99517.81;;;31.82;29.04
74524;BME280;63074;44.696;10.358;2024-03-06T01:42:18;99537.09;;;32.55;28.87
74524;BME280;63074;44.696;10.358;2024-03-06T01:44:44;99532.50;;;31.76;29.13
74524;BME280;63074;44.696;10.358;2024-03-06T01:47:10;99525.53;;;32.25;29.24
74524;BME280;63074;44.696;10.358;2024-03-06T01:49:36;99537.50;;;32.68;29.03
74524;BME280;63074;44.696;10.358;2024-03-06T01:52:03;99542.50;;;32.09;28.87
74524;BME280;63074;44.696;10.358;2024-03-06T01:54:30;99554.63;;;28.86;31.92
74524;BME280;63074;44.696;10.358;2024-03-06T01:56:58;99549.41;;;28.20;33.21
74524;BME280;63074;44.696;10.358;2024-03-06T01:59:26;99536.97;;;29.74;31.68
74524;BME280;63074;44.696;10.358;2024-03-06T02:01:55;99545.56;;;31.13;30.38
74524;BME280;63074;44.696;10.358;2024-03-06T02:04:23;99542.16;;;30.90;30.15
74524;BME280;63074;44.696;10.358;2024-03-06T02:06:50;99533.09;;;30.89;30.72
74524;BME280;63074;44.696;10.358;2024-03-06T02:09:16;99522.59;;;29.38;32.01
74524;BME280;63074;44.696;10.358;2024-03-06T02:11:42;99523.16;;;30.92;30.86
74524;BME280;63074;44.696;10.358;2024-03-06T02:14:10;99525.06;;;32.12;29.54
74524;BME280;63074;44.696;10.358;2024-03-06T02:16:37;99527.72;;;31.83;29.09
74524;BME280;63074;44.696;10.358;2024-03-06T02:19:07;99529.59;;;32.77;29.11
74524;BME280;63074;44.696;10.358;2024-03-06T02:21:34;99525.56;;;32.49;29.08
74524;BME280;63074;44.696;10.358;2024-03-06T02:24:01;99525.06;;;32.05;29.24
74524;BME280;63074;44.696;10.358;2024-03-06T02:26:27;99532.66;;;30.87;30.07
74524;BME280;63074;44.696;10.358;2024-03-06T02:28:54;99526.38;;;31.52;29.91
74524;BME280;63074;44.696;10.358;2024-03-06T02:31:21;99517.75;;;31.10;30.05
74524;BME280;63074;44.696;10.358;2024-03-06T02:33:49;99516.22;;;31.85;29.17
74524;BME280;63074;44.696;10.358;2024-03-06T02:36:19;99523.56;;;31.45;29.88
74524;BME280;63074;44.696;10.358;2024-03-06T02:38:45;99535.63;;;31.78;29.67
74524;BME280;63074;44.696;10.358;2024-03-06T02:41:12;99535.75;;;30.01;31.03
74524;BME280;63074;44.696;10.358;2024-03-06T02:43:41;99518.59;;;31.83;29.01
74524;BME280;63074;44.696;10.358;2024-03-06T02:46:10;99518.22;;;31.15;29.89
74524;BME280;63074;44.696;10.358;2024-03-06T02:48:37;99500.31;;;29.28;31.02
74524;BME280;63074;44.696;10.358;2024-03-06T02:51:03;99507.31;;;30.93;30.96
74524;BME280;63074;44.696;10.358;2024-03-06T02:53:29;99510.47;;;32.47;28.94
74524;BME280;63074;44.696;10.358;2024-03-06T02:55:55;99502.53;;;32.74;28.64
74524;BME280;63074;44.696;10.358;2024-03-06T02:58:22;99512.50;;;32.85;28.82
74524;BME280;63074;44.696;10.358;2024-03-06T03:00:48;99511.66;;;32.49;29.33
74524;BME280;63074;44.696;10.358;2024-03-06T03:03:14;99517.06;;;31.93;29.38
74524;BME280;63074;44.696;10.358;2024-03-06T03:05:40;99517.00;;;31.75;29.98
74524;BME280;63074;44.696;10.358;2024-03-06T03:08:07;99518.22;;;30.68;30.81
74524;BME280;63074;44.696;10.358;2024-03-06T03:10:34;99524.19;;;31.86;29.17
74524;BME280;63074;44.696;10.358;2024-03-06T03:13:01;99530.56;;;30.74;29.98
74524;BME280;63074;44.696;10.358;2024-03-06T03:15:27;99533.81;;;29.22;31.31
74524;BME280;63074;44.696;10.358;2024-03-06T03:17:54;99529.03;;;29.76;31.54
74524;BME280;63074;44.696;10.358;2024-03-06T03:20:20;99525.69;;;30.60;30.44
74524;BME280;63074;44.696;10.358;2024-03-06T03:22:46;99528.78;;;30.99;29.93
74524;BME280;63074;44.696;10.358;2024-03-06T03:25:13;99533.50;;;30.95;29.73
74524;BME280;63074;44.696;10.358;2024-03-06T03:27:40;99532.41;;;30.59;30.10
74524;BME280;63074;44.696;10.358;2024-03-06T03:30:13;99540.69;;;29.32;31.59
74524;BME280;63074;44.696;10.358;2024-03-06T03:32:39;99540.19;;;28.77;32.31
74524;BME280;63074;44.696;10.358;2024-03-06T03:35:06;99547.03;;;30.56;30.18
74524;BME280;63074;44.696;10.358;2024-03-06T03:37:33;99557.38;;;31.07;29.54
74524;BME280;63074;44.696;10.358;2024-03-06T03:39:59;99559.44;;;28.93;31.79
74524;BME280;63074;44.696;10.358;2024-03-06T03:42:26;99549.84;;;29.93;30.21
74524;BME280;63074;44.696;10.358;2024-03-06T03:44:52;99544.09;;;30.82;30.07
74524;BME280;63074;44.696;10.358;2024-03-06T03:47:18;99551.94;;;31.76;29.35
74524;BME280;63074;44.696;10.358;2024-03-06T03:49:44;99556.78;;;30.83;29.95
74524;BME280;63074;44.696;10.358;2024-03-06T03:52:11;99558.34;;;31.94;28.87
74524;BME280;63074;44.696;10.358;2024-03-06T03:54:38;99565.44;;;31.22;29.32
74524;BME280;63074;44.696;10.358;2024-03-06T03:57:05;99562.78;;;30.89;29.63
74524;BME280;63074;44.696;10.358;2024-03-06T03:59:32;99555.31;;;30.97;29.50
74524;BME280;63074;44.696;10.358;2024-03-06T04:01:59;99531.53;;;31.54;29.28
74524;BME280;63074;44.696;10.358;2024-03-06T04:04:25;99530.53;;;31.14;29.67
74524;BME280;63074;44.696;10.358;2024-03-06T04:06:51;99528.50;;;30.27;29.93
74524;BME280;63074;44.696;10.358;2024-03-06T04:09:17;99535.06;;;30.48;29.98
74524;BME280;63074;44.696;10.358;2024-03-06T04:11:44;99533.72;;;30.35;30.15
74524;BME280;63074;44.696;10.358;2024-03-06T04:14:10;99543.91;;;30.61;29.21
74524;BME280;63074;44.696;10.358;2024-03-06T04:16:36;99541.66;;;29.70;30.53
74524;BME280;63074;44.696;10.358;2024-03-06T04:19:03;99535.28;;;29.39;30.84
74524;BME280;63074;44.696;10.358;2024-03-06T04:21:29;99541.41;;;30.93;29.33
74524;BME280;63074;44.696;10.358;2024-03-06T04:23:56;99530.03;;;31.09;29.58
74524;BME280;63074;44.696;10.358;2024-03-06T04:26:22;99538.06;;;30.73;29.74
74524;BME280;63074;44.696;10.358;2024-03-06T04:28:48;99554.75;;;30.40;29.91
74524;BME280;63074;44.696;10.358;2024-03-06T04:31:14;99558.00;;;30.12;30.31
74524;BME280;63074;44.696;10.358;2024-03-06T04:33:41;99572.88;;;30.30;29.78
74524;BME280;63074;44.696;10.358;2024-03-06T04:36:09;99571.78;;;30.05;29.51
74524;BME280;63074;44.696;10.358;2024-03-06T04:38:36;99569.88;;;30.83;29.11
74524;BME280;63074;44.696;10.358;2024-03-06T04:41:02;99569.84;;;30.79;28.92
74524;BME280;63074;44.696;10.358;2024-03-06T04:43:30;99578.19;;;30.12;29.54
74524;BME280;63074;44.696;10.358;2024-03-06T04:45:57;99590.94;;;30.54;29.11
74524;BME280;63074;44.696;10.358;2024-03-06T04:48:23;99584.53;;;30.46;28.63
74524;BME280;63074;44.696;10.358;2024-03-06T04:50:49;99585.66;;;30.08;29.03
74524;BME280;63074;44.696;10.358;2024-03-06T04:53:16;99585.16;;;30.29;29.01
74524;BME280;63074;44.696;10.358;2024-03-06T04:55:42;99587.34;;;29.56;29.90
74524;BME280;63074;44.696;10.358;2024-03-06T04:58:08;99587.31;;;30.83;28.69
74524;BME280;63074;44.696;10.358;2024-03-06T05:00:36;99582.78;;;30.68;29.13
74524;BME280;63074;44.696;10.358;2024-03-06T05:03:02;99591.75;;;30.54;29.60
74524;BME280;63074;44.696;10.358;2024-03-06T05:05:28;99594.22;;;30.60;29.33
74524;BME280;63074;44.696;10.358;2024-03-06T05:07:55;99592.69;;;30.32;29.44
74524;BME280;63074;44.696;10.358;2024-03-06T05:10:21;99600.75;;;30.44;29.23
74524;BME280;63074;44.696;10.358;2024-03-06T05:12:48;99591.91;;;30.35;29.74
74524;BME280;63074;44.696;10.358;2024-03-06T05:15:15;99591.03;;;30.58;29.22
74524;BME280;63074;44.696;10.358;2024-03-06T05:17:42;99590.66;;;30.59;29.36
74524;BME280;63074;44.696;10.358;2024-03-06T05:20:09;99595.13;;;30.74;29.34
74524;BME280;63074;44.696;10.358;2024-03-06T05:22:35;99594.41;;;30.81;28.91
74524;BME280;63074;44.696;10.358;2024-03-06T05:25:01;99594.78;;;30.09;29.83
74524;BME280;63074;44.696;10.358;2024-03-06T05:27:27;99599.94;;;29.54;30.61
74524;BME280;63074;44.696;10.358;2024-03-06T05:29:54;99613.19;;;29.94;29.95
74524;BME280;63074;44.696;10.358;2024-03-06T05:32:20;99616.72;;;30.21;29.71
74524;BME280;63074;44.696;10.358;2024-03-06T05:34:47;99619.41;;;31.29;28.71
74524;BME280;63074;44.696;10.358;2024-03-06T05:37:14;99608.31;;;30.47;29.58
74524;BME280;63074;44.696;10.358;2024-03-06T05:39:40;99611.03;;;30.10;29.53
74524;BME280;63074;44.696;10.358;2024-03-06T05:42:08;99610.59;;;30.08;29.69
74524;BME280;63074;44.696;10.358;2024-03-06T05:44:34;99604.34;;;29.85;29.91
74524;BME280;63074;44.696;10.358;2024-03-06T05:47:02;99620.50;;;30.76;28.86
74524;BME280;63074;44.696;10.358;2024-03-06T05:49:29;99619.38;;;30.47;29.49
74524;BME280;63074;44.696;10.358;2024-03-06T05:51:56;99616.28;;;30.52;29.18
74524;BME280;63074;44.696;10.358;2024-03-06T05:54:22;99622.84;;;30.71;28.95
74524;BME280;63074;44.696;10.358;2024-03-06T05:56:49;99624.31;;;29.22;30.10
74524;BME280;63074;44.696;10.358;2024-03-06T05:59:17;99620.59;;;29.60;30.20
74524;BME280;63074;44.696;10.358;2024-03-06T06:01:44;99613.94;;;29.91;29.37
74524;BME280;63074;44.696;10.358;2024-03-06T06:04:13;99622.53;;;29.56;29.80
74524;BME280;63074;44.696;10.358;2024-03-06T06:06:40;99630.44;;;29.84;29.22
74524;BME280;63074;44.696;10.358;2024-03-06T06:09:07;99635.03;;;28.01;31.66
74524;BME280;63074;44.696;10.358;2024-03-06T06:11:34;99635.03;;;28.01;31.77
74524;BME280;63074;44.696;10.358;2024-03-06T06:14:00;99636.56;;;27.98;31.55
74524;BME280;63074;44.696;10.358;2024-03-06T06:16:27;99642.34;;;28.89;30.23
74524;BME280;63074;44.696;10.358;2024-03-06T06:18:53;99655.13;;;27.50;32.04
74524;BME280;63074;44.696;10.358;2024-03-06T06:21:19;99647.34;;;27.87;32.20
74524;BME280;63074;44.696;10.358;2024-03-06T06:23:45;99663.56;;;26.95;32.97
74524;BME280;63074;44.696;10.358;2024-03-06T06:26:11;99663.91;;;26.77;32.83
74524;BME280;63074;44.696;10.358;2024-03-06T06:28:40;99660.31;;;28.99;31.29
74524;BME280;63074;44.696;10.358;2024-03-06T06:31:06;99670.69;;;28.25;31.74
74524;BME280;63074;44.696;10.358;2024-03-06T06:33:33;99669.03;;;29.24;30.74
74524;BME280;63074;44.696;10.358;2024-03-06T06:35:59;99676.34;;;29.85;30.54
74524;BME280;63074;44.696;10.358;2024-03-06T06:38:26;99684.22;;;30.39;29.60
74524;BME280;63074;44.696;10.358;2024-03-06T06:40:52;99696.16;;;31.10;28.89
74524;BME280;63074;44.696;10.358;2024-03-06T06:43:18;99693.41;;;30.43;30.04
74524;BME280;63074;44.696;10.358;2024-03-06T06:45:44;99692.59;;;30.13;30.40
74524;BME280;63074;44.696;10.358;2024-03-06T06:48:11;99693.31;;;29.34;30.66
74524;BME280;63074;44.696;10.358;2024-03-06T06:50:38;99688.31;;;30.49;30.12
74524;BME280;63074;44.696;10.358;2024-03-06T06:53:04;99680.66;;;29.56;30.44
74524;BME280;63074;44.696;10.358;2024-03-06T06:55:30;99683.59;;;30.19;29.89
74524;BME280;63074;44.696;10.358;2024-03-06T06:57:57;99683.13;;;29.61;31.05
74524;BME280;63074;44.696;10.358;2024-03-06T07:00:24;99680.19;;;30.03;30.58
74524;BME280;63074;44.696;10.358;2024-03-06T07:02:51;99672.97;;;30.92;29.45
74524;BME280;63074;44.696;10.358;2024-03-06T07:05:17;99686.31;;;29.89;30.55
74524;BME280;63074;44.696;10.358;2024-03-06T07:07:44;99687.59;;;27.88;32.76
74524;BME280;63074;44.696;10.358;2024-03-06T07:10:10;99681.44;;;28.69;33.01
74524;BME280;63074;44.696;10.358;2024-03-06T07:12:36;99676.00;;;30.46;30.79
74524;BME280;63074;44.696;10.358;2024-03-06T07:15:03;99678.84;;;31.68;29.83
74524;BME280;63074;44.696;10.358;2024-03-06T07:17:29;99690.88;;;31.90;29.48
74524;BME280;63074;44.696;10.358;2024-03-06T07:19:55;99692.81;;;30.57;31.02
74524;BME280;63074;44.696;10.358;2024-03-06T07:22:22;99700.53;;;30.44;31.20
74524;BME280;63074;44.696;10.358;2024-03-06T07:24:49;99708.06;;;32.10;29.72
74524;BME280;63074;44.696;10.358;2024-03-06T07:27:15;99706.56;;;33.38;28.75
74524;BME280;63074;44.696;10.358;2024-03-06T07:29:41;99718.22;;;32.46;29.84
74524;BME280;63074;44.696;10.358;2024-03-06T07:32:07;99721.25;;;31.21;30.08
74524;BME280;63074;44.696;10.358;2024-03-06T07:34:34;99722.13;;;31.73;30.69
74524;BME280;63074;44.696;10.358;2024-03-06T07:37:00;99712.53;;;29.96;31.89
74524;BME280;63074;44.696;10.358;2024-03-06T07:39:27;99705.44;;;29.98;32.60
74524;BME280;63074;44.696;10.358;2024-03-06T07:41:53;99708.78;;;31.04;31.13
74524;BME280;63074;44.696;10.358;2024-03-06T07:44:20;99721.78;;;32.43;30.12
74524;BME280;63074;44.696;10.358;2024-03-06T07:46:47;99717.28;;;31.66;30.39
74524;BME280;63074;44.696;10.358;2024-03-06T07:49:13;99716.19;;;29.08;32.05
74524;BME280;63074;44.696;10.358;2024-03-06T07:51:39;99716.72;;;29.60;33.16
74524;BME280;63074;44.696;10.358;2024-03-06T07:54:08;99708.88;;;32.90;29.44
74524;BME280;63074;44.696;10.358;2024-03-06T07:56:35;99715.63;;;32.93;30.00
74524;BME280;63074;44.696;10.358;2024-03-06T07:59:01;99729.41;;;32.61;30.00
74524;BME280;63074;44.696;10.358;2024-03-06T08:01:27;99719.72;;;33.45;29.16
74524;BME280;63074;44.696;10.358;2024-03-06T08:03:55;99737.66;;;31.81;30.70
74524;BME280;63074;44.696;10.358;2024-03-06T08:06:21;99732.97;;;32.54;29.76
74524;BME280;63074;44.696;10.358;2024-03-06T08:08:47;99737.19;;;33.31;29.85
74524;BME280;63074;44.696;10.358;2024-03-06T08:11:14;99745.06;;;34.53;28.55
74524;BME280;63074;44.696;10.358;2024-03-06T08:13:40;99738.41;;;33.73;29.28
74524;BME280;63074;44.696;10.358;2024-03-06T08:16:07;99739.94;;;34.27;29.06
74524;BME280;63074;44.696;10.358;2024-03-06T08:18:34;99749.50;;;36.58;26.96
74524;BME280;63074;44.696;10.358;2024-03-06T08:21:01;99752.19;;;32.87;29.25
74524;BME280;63074;44.696;10.358;2024-03-06T08:23:29;99745.56;;;30.64;32.52
74524;BME280;63074;44.696;10.358;2024-03-06T08:25:56;99748.56;;;29.50;33.73
74524;BME280;63074;44.696;10.358;2024-03-06T08:28:22;99745.00;;;28.49;34.35
74524;BME280;63074;44.696;10.358;2024-03-06T08:30:49;99757.78;;;27.87;36.35
74524;BME280;63074;44.696;10.358;2024-03-06T08:33:15;99762.66;;;28.26;36.06
74524;BME280;63074;44.696;10.358;2024-03-06T08:35:42;99757.31;;;28.71;34.83
74524;BME280;63074;44.696;10.358;2024-03-06T08:38:08;99769.00;;;27.95;35.60
74524;BME280;63074;44.696;10.358;2024-03-06T08:40:34;99768.88;;;29.58;35.04
74524;BME280;63074;44.696;10.358;2024-03-06T08:43:01;99767.88;;;31.42;33.17
74524;BME280;63074;44.696;10.358;2024-03-06T08:45:27;99779.84;;;32.52;31.37
74524;BME280;63074;44.696;10.358;2024-03-06T08:47:53;99787.97;;;30.38;32.90
74524;BME280;63074;44.696;10.358;2024-03-06T08:50:20;99784.91;;;29.48;33.89
74524;BME280;63074;44.696;10.358;2024-03-06T08:52:47;99783.91;;;30.06;33.03
74524;BME280;63074;44.696;10.358;2024-03-06T08:55:13;99797.69;;;31.93;32.55
74524;BME280;63074;44.696;10.358;2024-03-06T08:57:40;99801.31;;;33.81;30.20
74524;BME280;63074;44.696;10.358;2024-03-06T09:00:07;99800.13;;;33.75;29.56
74524;BME280;63074;44.696;10.358;2024-03-06T09:02:37;99800.84;;;31.50;31.61
74524;BME280;63074;44.696;10.358;2024-03-06T09:05:05;99796.53;;;29.80;33.20
74524;BME280;63074;44.696;10.358;2024-03-06T09:07:32;99795.69;;;29.76;34.15
74524;BME280;63074;44.696;10.358;2024-03-06T09:10:09;99807.31;;;32.68;31.31
74524;BME280;63074;44.696;10.358;2024-03-06T09:12:36;99809.25;;;34.29;29.64
74524;BME280;63074;44.696;10.358;2024-03-06T09:15:03;99811.38;;;32.19;30.74
74524;BME280;63074;44.696;10.358;2024-03-06T09:17:30;99808.91;;;34.02;30.21
74524;BME280;63074;44.696;10.358;2024-03-06T09:19:56;99814.44;;;32.03;32.23
74524;BME280;63074;44.696;10.358;2024-03-06T09:22:22;99812.41;;;33.45;30.22
74524;BME280;63074;44.696;10.358;2024-03-06T09:24:48;99813.66;;;34.08;29.43
74524;BME280;63074;44.696;10.358;2024-03-06T09:27:15;99813.75;;;30.69;32.16
74524;BME280;63074;44.696;10.358;2024-03-06T09:29:43;99814.44;;;30.88;32.89
74524;BME280;63074;44.696;10.358;2024-03-06T09:32:09;99815.78;;;32.82;30.32
74524;BME280;63074;44.696;10.358;2024-03-06T09:34:35;99824.38;;;29.87;32.40
74524;BME280;63074;44.696;10.358;2024-03-06T09:37:02;99828.34;;;31.26;32.10
74524;BME280;63074;44.696;10.358;2024-03-06T09:39:29;99819.69;;;30.14;33.30
74524;BME280;63074;44.696;10.358;2024-03-06T09:41:56;99837.25;;;32.92;30.65
74524;BME280;63074;44.696;10.358;2024-03-06T09:44:22;99833.47;;;34.85;28.70
74524;BME280;63074;44.696;10.358;2024-03-06T09:46:50;99824.81;;;31.29;32.74
74524;BME280;63074;44.696;10.358;2024-03-06T09:49:18;99830.59;;;30.83;32.70
74524;BME280;63074;44.696;10.358;2024-03-06T09:51:46;99832.59;;;32.41;31.29
74524;BME280;63074;44.696;10.358;2024-03-06T09:54:14;99835.00;;;34.97;28.97
74524;BME280;63074;44.696;10.358;2024-03-06T09:56:49;99834.34;;;34.25;29.92
74524;BME280;63074;44.696;10.358;2024-03-06T09:59:15;99836.63;;;33.31;29.86
74524;BME280;63074;44.696;10.358;2024-03-06T10:01:54;99825.03;;;30.00;32.88
74524;BME280;63074;44.696;10.358;2024-03-06T10:04:25;99832.66;;;32.48;31.43
74524;BME280;63074;44.696;10.358;2024-03-06T10:06:56;99844.97;;;32.51;30.21
74524;BME280;63074;44.696;10.358;2024-03-06T10:09:22;99853.16;;;32.88;30.75
74524;BME280;63074;44.696;10.358;2024-03-06T10:11:49;99841.44;;;30.39;33.00
74524;BME280;63074;44.696;10.358;2024-03-06T10:14:16;99844.94;;;31.55;31.60
74524;BME280;63074;44.696;10.358;2024-03-06T10:17:02;99854.19;;;31.00;32.91
74524;BME280;63074;44.696;10.358;2024-03-06T10:19:30;99846.81;;;30.54;32.84
74524;BME280;63074;44.696;10.358;2024-03-06T10:21:57;99843.50;;;31.32;32.06
74524;BME280;63074;44.696;10.358;2024-03-06T10:24:28;99839.94;;;32.16;30.47
74524;BME280;63074;44.696;10.358;2024-03-06T10:26:58;99837.53;;;30.43;32.82
74524;BME280;63074;44.696;10.358;2024-03-06T10:29:26;99851.53;;;32.80;29.78
74524;BME280;63074;44.696;10.358;2024-03-06T10:31:54;99847.91;;;34.37;29.87
74524;BME280;63074;44.696;10.358;2024-03-06T10:34:25;99849.81;;;31.29;32.05
74524;BME280;63074;44.696;10.358;2024-03-06T10:36:56;99851.47;;;35.57;28.28
74524;BME280;63074;44.696;10.358;2024-03-06T10:39:23;99854.72;;;34.29;28.56
74524;BME280;63074;44.696;10.358;2024-03-06T10:41:55;99849.00;;;33.51;30.48
74524;BME280;63074;44.696;10.358;2024-03-06T10:44:25;99859.25;;;35.21;28.76
74524;BME280;63074;44.696;10.358;2024-03-06T10:47:09;99871.69;;;35.82;28.40
74524;BME280;63074;44.696;10.358;2024-03-06T10:49:36;99874.75;;;33.23;29.92
74524;BME280;63074;44.696;10.358;2024-03-06T10:52:04;99881.84;;;37.57;27.46
74524;BME280;63074;44.696;10.358;2024-03-06T10:54:34;99878.72;;;33.11;29.65
74524;BME280;63074;44.696;10.358;2024-03-06T10:57:03;99875.81;;;34.02;30.15
74524;BME280;63074;44.696;10.358;2024-03-06T10:59:30;99881.53;;;35.35;28.52
74524;BME280;63074;44.696;10.358;2024-03-06T11:02:00;99885.88;;;33.09;29.16
74524;BME280;63074;44.696;10.358;2024-03-06T11:04:28;99878.13;;;34.71;29.29
74524;BME280;63074;44.696;10.358;2024-03-06T11:06:58;99890.13;;;37.95;25.63
74524;BME280;63074;44.696;10.358;2024-03-06T11:09:29;99889.09;;;35.38;26.74
74524;BME280;63074;44.696;10.358;2024-03-06T11:11:58;99888.78;;;36.84;27.09
74524;BME280;63074;44.696;10.358;2024-03-06T11:14:24;99878.56;;;34.44;29.20
74524;BME280;63074;44.696;10.358;2024-03-06T11:17:04;99875.78;;;34.62;28.81
74524;BME280;63074;44.696;10.358;2024-03-06T11:19:32;99889.19;;;33.50;28.93
74524;BME280;63074;44.696;10.358;2024-03-06T11:21:59;99880.81;;;33.32;29.58
74524;BME280;63074;44.696;10.358;2024-03-06T11:24:34;99875.88;;;35.49;27.50
74524;BME280;63074;44.696;10.358;2024-03-06T11:27:02;99885.22;;;35.07;28.24
74524;BME280;63074;44.696;10.358;2024-03-06T11:32:17;99876.06;;;35.03;28.41
74524;BME280;63074;44.696;10.358;2024-03-06T11:34:43;99875.81;;;34.34;28.21
74524;BME280;63074;44.696;10.358;2024-03-06T11:37:09;99876.00;;;36.39;26.78
74524;BME280;63074;44.696;10.358;2024-03-06T11:39:37;99877.09;;;35.45;27.41
74524;BME280;63074;44.696;10.358;2024-03-06T11:42:05;99874.41;;;33.28;28.15
74524;BME280;63074;44.696;10.358;2024-03-06T11:44:34;99884.53;;;33.82;29.36
74524;BME280;63074;44.696;10.358;2024-03-06T11:47:07;99886.38;;;35.94;27.12
74524;BME280;63074;44.696;10.358;2024-03-06T11:49:35;99874.19;;;38.38;26.30
74524;BME280;63074;44.696;10.358;2024-03-06T11:52:07;99883.66;;;37.10;25.94
74524;BME280;63074;44.696;10.358;2024-03-06T11:54:37;99873.22;;;37.14;26.83
74524;BME280;63074;44.696;10.358;2024-03-06T11:57:05;99873.09;;;33.04;27.65
74524;BME280;63074;44.696;10.358;2024-03-06T11:59:35;99876.22;;;37.30;26.44
74524;BME280;63074;44.696;10.358;2024-03-06T12:02:07;99876.28;;;37.27;26.09
74524;BME280;63074;44.696;10.358;2024-03-06T12:04:34;99871.03;;;36.12;26.45
74524;BME280;63074;44.696;10.358;2024-03-06T12:07:03;99875.13;;;37.24;26.03
74524;BME280;63074;44.696;10.358;2024-03-06T12:09:37;99878.31;;;38.07;24.83
74524;BME280;63074;44.696;10.358;2024-03-06T12:12:04;99878.09;;;37.71;24.64
74524;BME280;63074;44.696;10.358;2024-03-06T12:14:30;99855.00;;;40.82;23.48
74524;BME280;63074;44.696;10.358;2024-03-06T12:16:57;99875.50;;;38.54;24.40
74524;BME280;63074;44.696;10.358;2024-03-06T12:19:27;99873.28;;;37.41;24.39
74524;BME280;63074;44.696;10.358;2024-03-06T12:21:59;99873.91;;;38.53;24.52
74524;BME280;63074;44.696;10.358;2024-03-06T12:24:25;99879.25;;;41.21;22.84
74524;BME280;63074;44.696;10.358;2024-03-06T12:27:02;99856.53;;;35.80;26.22
74524;BME280;63074;44.696;10.358;2024-03-06T12:29:33;99854.22;;;34.84;25.92
74524;BME280;63074;44.696;10.358;2024-03-06T12:32:00;99807.06;;;39.43;23.59
74524;BME280;63074;44.696;10.358;2024-03-06T12:34:27;99854.94;;;41.78;23.23
74524;BME280;63074;44.696;10.358;2024-03-06T12:36:54;99825.81;;;42.85;22.65
74524;BME280;63074;44.696;10.358;2024-03-06T12:39:20;99800.53;;;41.65;23.14
74524;BME280;63074;44.696;10.358;2024-03-06T12:41:52;99843.91;;;39.65;24.08
74524;BME280;63074;44.696;10.358;2024-03-06T12:44:21;99823.69;;;39.86;24.18
74524;BME280;63074;44.696;10.358;2024-03-06T12:46:48;99850.63;;;40.20;23.85
74524;BME280;63074;44.696;10.358;2024-03-06T12:49:15;99823.91;;;42.60;22.02
74524;BME280;63074;44.696;10.358;2024-03-06T12:51:41;99836.25;;;40.75;22.58
74524;BME280;63074;44.696;10.358;2024-03-06T12:54:07;99778.91;;;37.34;24.91